6CO6 weather

Skywagon Ranch Airport
Berthoud, Colorado, United States

Public forecast

Using degrees Fahrenheit for public forecast. Weather courtesy of forecast.io.

Closest aviation weather report (METAR) to Skywagon Ranch Airport

Closest report is Vance Brand Airport, 8.9 nm (16.5 km) S. Retrieved 2019/10/18 22:35 UTC (17 minutes ago):

KLMO 182235Z AUTO 33013G20KT 10SM CLR 19/M08 A2974 RMK AO2 T01881085

Closest aviation forecast (TAF) to Skywagon Ranch Airport

Closest forecast is Rocky Mountain Metropolitan Airport, 24.2 nm (44.9 km) S. Retrieved 2019/10/18 18:39 UTC (4 hours ago):

TAF KBJC 181737Z 1818/1918 01012G20KT P6SM FEW080 SCT120 BKN200 FM182000 34020G30KT P6SM SCT080 BKN110 FM190100 31011KT P6SM FEW080 SCT120 FM190400 28010KT P6SM FEW150 FM191100 25008KT P6SM SKC